createdAt,value
2017-07-06T00:01:37.614Z,6.37
2017-07-06T00:04:04.899Z,6.20
2017-07-06T00:06:32.210Z,5.30
2017-07-06T00:08:59.509Z,6.00
2017-07-06T00:11:26.832Z,6.27
2017-07-06T00:13:54.177Z,5.80
2017-07-06T00:16:21.515Z,5.90
2017-07-06T00:18:48.853Z,6.07
2017-07-06T00:21:16.226Z,6.37
2017-07-06T00:23:43.535Z,6.00
2017-07-06T00:26:10.895Z,6.50
2017-07-06T00:28:38.221Z,6.87
2017-07-06T00:31:05.573Z,5.90
2017-07-06T00:33:32.891Z,7.10
2017-07-06T00:36:00.182Z,6.47
2017-07-06T00:38:27.514Z,6.30
2017-07-06T00:40:54.946Z,7.40
2017-07-06T00:43:22.308Z,7.30
2017-07-06T00:45:49.596Z,7.00
2017-07-06T00:48:16.914Z,7.47
2017-07-06T00:50:44.208Z,6.30
2017-07-06T00:53:11.561Z,6.50
2017-07-06T00:55:38.878Z,6.90
2017-07-06T00:58:06.253Z,6.03
2017-07-06T01:00:33.556Z,6.23
2017-07-06T01:03:00.880Z,6.40
2017-07-06T01:05:28.182Z,6.70
2017-07-06T01:07:55.506Z,6.97
2017-07-06T01:10:22.818Z,6.80
2017-07-06T01:12:50.149Z,6.47
2017-07-06T01:15:17.464Z,6.63
2017-07-06T01:17:44.767Z,6.07
2017-07-06T01:20:12.092Z,6.77
2017-07-06T01:22:39.422Z,6.90
2017-07-06T01:25:06.776Z,6.10
2017-07-06T01:27:34.086Z,6.13
2017-07-06T01:30:01.392Z,6.63
2017-07-06T01:32:29.614Z,6.30
2017-07-06T01:34:56.958Z,6.90
2017-07-06T01:37:24.281Z,6.30
2017-07-06T01:39:51.600Z,6.93
2017-07-06T01:42:18.889Z,7.00
2017-07-06T01:44:46.236Z,6.80
2017-07-06T01:47:13.639Z,7.10
2017-07-06T01:49:40.958Z,6.67
2017-07-06T01:52:08.282Z,7.10
2017-07-06T01:54:35.574Z,6.50
2017-07-06T01:57:02.930Z,6.77
2017-07-06T01:59:30.273Z,6.73
2017-07-06T02:01:57.609Z,6.33
2017-07-06T02:04:24.929Z,6.53
2017-07-06T02:06:52.239Z,6.50
2017-07-06T02:09:19.558Z,6.33
2017-07-06T02:11:46.900Z,6.83
2017-07-06T02:14:14.251Z,6.70
2017-07-06T02:16:41.605Z,7.20
2017-07-06T02:19:08.912Z,6.47
2017-07-06T02:21:36.228Z,6.57
2017-07-06T02:24:04.413Z,6.80
2017-07-06T02:26:31.737Z,7.70
2017-07-06T02:28:59.038Z,6.60
2017-07-06T02:31:26.322Z,6.67
2017-07-06T02:33:53.639Z,6.63
2017-07-06T02:36:20.963Z,7.20
2017-07-06T02:38:48.625Z,6.80
2017-07-06T02:41:15.918Z,7.37
2017-07-06T02:43:43.267Z,7.40
2017-07-06T02:46:10.608Z,6.97
2017-07-06T02:48:38.144Z,9.20
2017-07-06T02:51:05.490Z,7.77
2017-07-06T02:53:32.824Z,8.33
2017-07-06T02:56:00.151Z,8.97
2017-07-06T02:58:27.486Z,9.60
2017-07-06T03:00:54.785Z,11.50
2017-07-06T03:03:22.122Z,12.37
2017-07-06T03:05:49.447Z,11.60
2017-07-06T03:08:16.810Z,12.37
2017-07-06T03:10:44.147Z,13.27
2017-07-06T03:13:11.443Z,11.10
2017-07-06T03:15:38.785Z,11.60
2017-07-06T03:18:06.134Z,12.37
2017-07-06T03:20:33.496Z,11.77
2017-07-06T03:23:00.801Z,11.80
2017-07-06T03:25:28.137Z,11.17
2017-07-06T03:27:55.441Z,10.80
2017-07-06T03:30:22.767Z,10.60
2017-07-06T03:32:50.177Z,10.07
2017-07-06T03:35:17.548Z,10.50
2017-07-06T03:37:44.860Z,9.50
2017-07-06T03:40:12.192Z,10.10
2017-07-06T03:42:39.562Z,9.83
2017-07-06T03:45:06.885Z,10.40
2017-07-06T03:47:34.367Z,8.80
2017-07-06T03:50:01.649Z,9.77
2017-07-06T03:52:29.166Z,9.93
2017-07-06T03:54:56.475Z,10.40
2017-07-06T03:57:23.817Z,10.30
2017-07-06T03:59:51.155Z,10.60
2017-07-06T04:02:18.514Z,11.43
2017-07-06T04:04:46.778Z,10.67
2017-07-06T04:07:14.098Z,10.53
2017-07-06T04:09:41.395Z,11.60
2017-07-06T04:12:08.701Z,12.27
2017-07-06T04:14:36.039Z,11.70
2017-07-06T04:17:03.356Z,11.93
2017-07-06T04:19:30.712Z,11.93
2017-07-06T04:21:58.034Z,11.23
2017-07-06T04:24:25.385Z,11.00
2017-07-06T04:26:52.746Z,11.77
2017-07-06T04:29:20.061Z,10.23
2017-07-06T04:31:47.413Z,10.23
2017-07-06T04:34:14.823Z,9.90
2017-07-06T04:36:42.132Z,9.50
2017-07-06T04:39:09.457Z,9.90
2017-07-06T04:41:36.782Z,9.77
2017-07-06T04:44:04.149Z,11.00
2017-07-06T04:46:31.465Z,9.83
2017-07-06T04:48:58.817Z,9.97
2017-07-06T04:51:26.152Z,9.60
2017-07-06T04:53:53.485Z,10.20
2017-07-06T04:56:20.834Z,9.43
2017-07-06T04:58:48.135Z,8.80
2017-07-06T05:01:15.452Z,8.30
2017-07-06T05:03:42.763Z,8.67
2017-07-06T05:06:10.086Z,8.37
2017-07-06T05:08:37.420Z,8.40
2017-07-06T05:11:04.786Z,8.23
2017-07-06T05:13:32.116Z,8.73
2017-07-06T05:15:59.775Z,8.03
2017-07-06T05:18:27.343Z,7.90
2017-07-06T05:20:54.672Z,8.07
2017-07-06T05:23:22.033Z,7.40
2017-07-06T05:25:49.345Z,7.90
2017-07-06T05:28:16.823Z,7.57
2017-07-06T05:30:44.124Z,8.07
2017-07-06T05:33:12.312Z,8.20
2017-07-06T05:35:39.614Z,8.40
2017-07-06T05:38:06.964Z,8.60
2017-07-06T05:40:34.285Z,7.90
2017-07-06T05:43:01.646Z,8.27
2017-07-06T05:45:29.369Z,8.00
2017-07-06T05:47:56.814Z,7.90
2017-07-06T05:50:24.393Z,7.83
2017-07-06T05:52:51.942Z,8.90
2017-07-06T05:55:19.262Z,8.10
2017-07-06T05:57:46.755Z,8.30
2017-07-06T06:00:14.320Z,9.77
2017-07-06T06:02:41.933Z,10.10
2017-07-06T06:05:09.239Z,12.33
2017-07-06T06:07:36.601Z,11.77
2017-07-06T06:10:03.923Z,11.27
2017-07-06T06:12:31.322Z,10.77
2017-07-06T06:14:58.641Z,10.47
2017-07-06T06:17:25.944Z,10.70
2017-07-06T06:19:53.301Z,9.37
2017-07-06T06:22:20.625Z,10.43
2017-07-06T06:24:47.977Z,10.70
2017-07-06T06:27:15.309Z,11.50
2017-07-06T06:29:42.633Z,11.73
2017-07-06T06:32:09.971Z,12.07
2017-07-06T06:34:37.297Z,11.60
2017-07-06T06:37:04.601Z,12.43
2017-07-06T06:39:31.929Z,12.40
2017-07-06T06:41:59.280Z,12.30
2017-07-06T06:44:26.594Z,13.20
2017-07-06T06:46:53.956Z,12.13
2017-07-06T06:49:21.294Z,13.30
2017-07-06T06:51:48.633Z,11.90
2017-07-06T06:54:16.881Z,12.03
2017-07-06T06:56:44.223Z,12.10
2017-07-06T06:59:11.566Z,13.10
2017-07-06T07:01:38.928Z,13.13
2017-07-06T07:04:06.239Z,9.80
2017-07-06T07:06:33.560Z,9.93
2017-07-06T07:09:00.916Z,9.80
2017-07-06T07:11:28.250Z,11.10
2017-07-06T07:13:55.567Z,10.77
2017-07-06T07:16:22.877Z,10.07
2017-07-06T07:18:50.245Z,9.83
2017-07-06T07:21:17.556Z,8.80
2017-07-06T07:23:44.856Z,7.70
2017-07-06T07:26:12.155Z,6.93
2017-07-06T07:28:39.473Z,7.70
2017-07-06T07:31:06.785Z,7.30
2017-07-06T07:33:34.139Z,6.03
2017-07-06T07:36:01.482Z,5.70
2017-07-06T07:38:28.840Z,6.50
2017-07-06T07:40:56.149Z,6.27
2017-07-06T07:43:23.477Z,5.73
2017-07-06T07:45:50.785Z,4.63
2017-07-06T07:48:18.088Z,4.50
2017-07-06T07:50:45.389Z,4.53
2017-07-06T07:53:12.693Z,4.60
2017-07-06T07:55:40.008Z,3.97
2017-07-06T07:58:07.346Z,4.60
2017-07-06T08:00:35.606Z,2.50
2017-07-06T08:03:02.943Z,2.80
2017-07-06T08:05:30.303Z,3.13
2017-07-06T08:07:57.863Z,3.30
2017-07-06T08:10:25.202Z,3.47
2017-07-06T08:12:52.518Z,3.30
2017-07-06T08:15:19.858Z,3.40
2017-07-06T08:17:47.160Z,2.50
2017-07-06T08:20:14.515Z,2.83
2017-07-06T08:22:41.873Z,2.30
2017-07-06T08:25:09.189Z,2.53
2017-07-06T08:27:36.509Z,3.17
2017-07-06T08:30:03.835Z,3.10
2017-07-06T08:32:31.149Z,2.83
2017-07-06T08:34:58.499Z,3.10
2017-07-06T08:37:25.836Z,3.13
2017-07-06T08:39:53.174Z,3.10
2017-07-06T08:42:20.490Z,3.10
2017-07-06T08:44:47.796Z,3.43
2017-07-06T08:47:15.112Z,3.17
2017-07-06T08:49:42.409Z,3.40
2017-07-06T08:52:09.766Z,2.70
2017-07-06T08:54:37.075Z,3.00
2017-07-06T08:57:04.400Z,2.80
2017-07-06T08:59:31.684Z,3.30
2017-07-06T09:01:59.214Z,3.17
2017-07-06T09:04:26.539Z,3.30
2017-07-06T09:06:53.882Z,3.87
2017-07-06T09:09:21.238Z,3.37
2017-07-06T09:11:48.532Z,2.80
2017-07-06T09:14:15.844Z,2.70
2017-07-06T09:16:43.151Z,2.77
2017-07-06T09:19:10.488Z,3.00
2017-07-06T09:21:37.826Z,2.63
2017-07-06T09:24:05.178Z,3.17
2017-07-06T09:26:32.496Z,3.07
2017-07-06T09:28:59.809Z,2.90
2017-07-06T09:31:27.133Z,3.03
2017-07-06T09:33:54.538Z,2.80
2017-07-06T09:36:21.889Z,2.87
2017-07-06T09:38:49.205Z,2.87
2017-07-06T09:41:16.495Z,2.83
2017-07-06T09:43:43.801Z,3.07
2017-07-06T09:46:11.132Z,2.90
2017-07-06T09:48:38.478Z,2.90
2017-07-06T09:51:05.894Z,2.70
2017-07-06T09:53:33.198Z,3.07
2017-07-06T09:56:00.520Z,3.20
2017-07-06T09:58:28.777Z,3.20
2017-07-06T10:00:56.122Z,3.20
2017-07-06T10:03:23.490Z,3.17
2017-07-06T10:05:50.812Z,2.63
2017-07-06T10:08:18.116Z,2.60
2017-07-06T10:10:45.437Z,2.90
2017-07-06T10:13:12.731Z,3.30
2017-07-06T10:15:40.026Z,3.30
2017-07-06T10:18:07.340Z,2.93
2017-07-06T10:20:34.650Z,3.10
2017-07-06T10:23:01.986Z,3.10
2017-07-06T10:25:29.304Z,3.17
2017-07-06T10:27:56.977Z,3.73
2017-07-06T10:30:24.315Z,3.27
2017-07-06T10:32:51.635Z,3.20
2017-07-06T10:35:18.953Z,3.30
2017-07-06T10:37:46.288Z,3.10
2017-07-06T10:40:13.594Z,3.00
2017-07-06T10:42:40.902Z,2.90
2017-07-06T10:45:08.211Z,3.50
2017-07-06T10:47:35.510Z,2.97
2017-07-06T10:50:02.819Z,2.83
2017-07-06T10:52:30.169Z,3.47
2017-07-06T10:54:57.520Z,3.30
2017-07-06T10:57:24.854Z,2.97
2017-07-06T10:59:52.187Z,3.57
2017-07-06T11:02:19.817Z,3.70
2017-07-06T11:04:47.192Z,3.10
2017-07-06T11:07:14.564Z,3.07
2017-07-06T11:09:41.900Z,3.10
2017-07-06T11:12:09.272Z,3.23
2017-07-06T11:14:36.554Z,3.07
2017-07-06T11:17:03.865Z,2.90
2017-07-06T11:19:31.186Z,3.10
2017-07-06T11:21:58.471Z,3.40
2017-07-06T11:24:26.641Z,3.00
2017-07-06T11:26:53.978Z,3.00
2017-07-06T11:29:21.277Z,3.20
2017-07-06T11:31:48.577Z,3.10
2017-07-06T11:34:15.865Z,3.20
2017-07-06T11:36:43.213Z,3.00
2017-07-06T11:39:10.570Z,3.00
2017-07-06T11:41:37.893Z,3.20
2017-07-06T11:44:05.213Z,3.80
2017-07-06T11:46:32.533Z,3.20
2017-07-06T11:48:59.861Z,3.10
2017-07-06T11:51:27.177Z,3.07
2017-07-06T11:53:54.488Z,2.93
2017-07-06T11:56:21.895Z,3.10
2017-07-06T11:58:49.240Z,3.40
2017-07-06T12:01:16.528Z,3.20
2017-07-06T12:03:43.851Z,3.10
2017-07-06T12:06:11.486Z,2.93
2017-07-06T12:08:38.796Z,3.07
2017-07-06T12:11:06.320Z,3.13
2017-07-06T12:13:33.656Z,2.90
2017-07-06T12:16:00.969Z,3.00
2017-07-06T12:18:28.332Z,3.10
2017-07-06T12:20:55.942Z,2.90
2017-07-06T12:23:23.264Z,3.20
2017-07-06T12:25:50.562Z,3.17
2017-07-06T12:28:17.879Z,2.60
2017-07-06T12:30:45.173Z,2.50
2017-07-06T12:33:12.801Z,3.43
2017-07-06T12:35:40.108Z,3.10
2017-07-06T12:38:07.406Z,3.87
2017-07-06T12:40:34.757Z,3.10
2017-07-06T12:43:02.157Z,3.10
2017-07-06T12:45:29.455Z,2.87
2017-07-06T12:47:56.774Z,2.87
2017-07-06T12:50:24.133Z,2.70
2017-07-06T12:52:51.734Z,3.30
2017-07-06T12:55:19.096Z,2.70
2017-07-06T12:57:46.395Z,2.80
2017-07-06T13:00:13.753Z,2.83
2017-07-06T13:02:41.070Z,3.10
2017-07-06T13:05:08.363Z,2.50
2017-07-06T13:07:35.681Z,2.87
2017-07-06T13:10:03.316Z,2.57
2017-07-06T13:12:30.624Z,2.73
2017-07-06T13:14:57.907Z,2.77
2017-07-06T13:17:25.230Z,2.63
2017-07-06T13:19:52.530Z,2.83
2017-07-06T13:22:19.840Z,2.90
2017-07-06T13:24:47.437Z,3.20
2017-07-06T13:27:14.752Z,2.87
2017-07-06T13:29:42.053Z,2.80
2017-07-06T13:32:09.367Z,3.03
2017-07-06T13:34:36.709Z,2.60
2017-07-06T13:37:04.060Z,3.00
2017-07-06T13:39:31.388Z,2.40
2017-07-06T13:41:58.751Z,2.70
2017-07-06T13:44:26.047Z,2.73
2017-07-06T13:46:53.350Z,2.50
2017-07-06T13:49:20.675Z,2.60
2017-07-06T13:51:47.989Z,2.83
2017-07-06T13:54:15.316Z,2.50
2017-07-06T13:56:42.617Z,2.65
2017-07-06T13:59:09.940Z,2.60
2017-07-06T14:01:37.246Z,2.55
2017-07-06T14:04:04.615Z,2.60
2017-07-06T14:06:31.906Z,2.40
2017-07-06T14:08:59.214Z,2.58
2017-07-06T14:11:26.525Z,2.22
2017-07-06T14:13:53.853Z,2.33
2017-07-06T14:16:21.150Z,2.03
2017-07-06T14:18:48.462Z,2.40
2017-07-06T14:21:15.806Z,2.33
2017-07-06T14:23:43.112Z,2.67
2017-07-06T14:26:10.437Z,2.35
2017-07-06T14:28:37.731Z,2.40
2017-07-06T14:31:05.071Z,2.33
2017-07-06T14:33:32.373Z,2.42
2017-07-06T14:35:59.693Z,2.20
2017-07-06T14:38:26.981Z,2.78
2017-07-06T14:40:54.319Z,2.40
2017-07-06T14:43:22.558Z,2.67
2017-07-06T14:45:49.873Z,2.50
2017-07-06T14:48:17.179Z,2.28
2017-07-06T14:50:44.545Z,2.53
2017-07-06T14:53:11.836Z,2.20
2017-07-06T14:55:39.189Z,2.70
2017-07-06T14:58:06.519Z,2.60
2017-07-06T15:00:33.838Z,2.72
2017-07-06T15:03:01.136Z,2.55
2017-07-06T15:05:28.454Z,2.33
2017-07-06T15:07:55.764Z,2.40
2017-07-06T15:10:23.069Z,2.53
2017-07-06T15:12:50.380Z,2.50
2017-07-06T15:15:17.690Z,2.40
2017-07-06T15:17:44.999Z,2.30
2017-07-06T15:20:12.483Z,2.30
2017-07-06T15:22:39.822Z,2.87
2017-07-06T15:25:07.121Z,2.83
2017-07-06T15:27:34.445Z,2.90
2017-07-06T15:30:01.746Z,2.80
2017-07-06T15:32:29.126Z,2.58
2017-07-06T15:34:56.417Z,2.83
2017-07-06T15:37:23.717Z,3.20
2017-07-06T15:39:51.033Z,2.60
2017-07-06T15:42:18.366Z,2.75
2017-07-06T15:44:45.683Z,2.60
2017-07-06T15:47:12.995Z,2.60
2017-07-06T15:49:40.323Z,2.60
2017-07-06T15:52:07.625Z,2.50
2017-07-06T15:54:34.972Z,2.47
2017-07-06T15:57:02.299Z,2.42
2017-07-06T15:59:29.628Z,2.62
2017-07-06T16:01:56.934Z,2.62
2017-07-06T16:04:24.243Z,2.95
2017-07-06T16:06:51.559Z,2.60
2017-07-06T16:09:18.860Z,2.75
2017-07-06T16:11:46.327Z,2.90
2017-07-06T16:14:13.628Z,2.97
2017-07-06T16:16:40.954Z,2.55
2017-07-06T16:19:08.275Z,2.40
2017-07-06T16:21:35.621Z,2.70
2017-07-06T16:24:02.962Z,2.53
2017-07-06T16:26:30.309Z,2.70
2017-07-06T16:28:57.638Z,2.80
2017-07-06T16:31:25.287Z,2.42
2017-07-06T16:33:52.618Z,2.50
2017-07-06T16:36:20.088Z,2.95
2017-07-06T16:38:47.389Z,2.72
2017-07-06T16:41:14.732Z,2.80
2017-07-06T16:43:42.021Z,2.65
2017-07-06T16:46:09.332Z,2.55
2017-07-06T16:48:36.666Z,2.60
2017-07-06T16:51:04.033Z,2.70
2017-07-06T16:53:31.370Z,2.50
2017-07-06T16:55:58.674Z,2.80
2017-07-06T16:58:26.236Z,3.20
2017-07-06T17:00:53.589Z,3.30
2017-07-06T17:03:20.926Z,3.35
2017-07-06T17:05:48.254Z,3.70
2017-07-06T17:08:15.591Z,3.40
2017-07-06T17:10:42.876Z,3.30
2017-07-06T17:13:10.206Z,3.67
2017-07-06T17:15:37.504Z,3.22
2017-07-06T17:18:04.870Z,3.45
2017-07-06T17:20:32.233Z,3.20
2017-07-06T17:22:59.557Z,3.37
2017-07-06T17:25:26.844Z,3.25
2017-07-06T17:27:54.140Z,3.03
2017-07-06T17:30:21.490Z,3.15
2017-07-06T17:32:48.819Z,3.35
2017-07-06T17:35:16.157Z,2.90
2017-07-06T17:37:43.506Z,3.05
2017-07-06T17:40:10.845Z,3.25
2017-07-06T17:42:38.166Z,3.30
2017-07-06T17:45:05.481Z,2.87
2017-07-06T17:47:32.793Z,3.08
2017-07-06T17:50:00.122Z,3.17
2017-07-06T17:52:27.436Z,3.12
2017-07-06T17:54:54.809Z,3.00
2017-07-06T17:57:22.126Z,3.60
2017-07-06T17:59:49.459Z,3.40
2017-07-06T18:02:16.759Z,3.33
2017-07-06T18:04:44.063Z,3.50
2017-07-06T18:07:11.389Z,3.80
2017-07-06T18:09:38.717Z,4.43
2017-07-06T18:12:06.016Z,4.30
2017-07-06T18:14:33.319Z,3.60
2017-07-06T18:17:00.639Z,4.10
2017-07-06T18:19:27.989Z,4.17
2017-07-06T18:21:55.340Z,3.80
2017-07-06T18:24:22.676Z,3.40
2017-07-06T18:26:50.035Z,3.37
2017-07-06T18:29:17.351Z,3.77
2017-07-06T18:31:44.649Z,4.07
2017-07-06T18:34:11.946Z,3.80
2017-07-06T18:36:39.277Z,4.00
2017-07-06T18:39:06.624Z,3.83
2017-07-06T18:41:33.963Z,3.40
2017-07-06T18:44:01.285Z,3.80
2017-07-06T18:46:28.611Z,3.87
2017-07-06T18:48:56.019Z,4.03
2017-07-06T18:51:23.327Z,4.27
2017-07-06T18:53:50.664Z,3.90
2017-07-06T18:56:18.375Z,3.93
2017-07-06T18:58:45.684Z,4.10
2017-07-06T19:01:12.998Z,4.43
2017-07-06T19:03:40.322Z,4.80
2017-07-06T19:06:07.604Z,4.97
2017-07-06T19:08:34.963Z,4.67
2017-07-06T19:11:03.172Z,4.63
2017-07-06T19:13:30.557Z,4.87
2017-07-06T19:15:57.859Z,4.67
2017-07-06T19:18:25.189Z,4.57
2017-07-06T19:20:52.522Z,5.50
2017-07-06T19:23:19.804Z,6.47
2017-07-06T19:25:47.131Z,5.97
2017-07-06T19:28:15.474Z,6.27
2017-07-06T19:30:42.785Z,6.83
2017-07-06T19:33:10.081Z,7.03
2017-07-06T19:35:37.410Z,6.90
2017-07-06T19:38:04.700Z,6.07
2017-07-06T19:40:32.022Z,6.40
2017-07-06T19:42:59.318Z,6.70
2017-07-06T19:45:26.633Z,6.37
2017-07-06T19:47:53.964Z,6.70
2017-07-06T19:50:21.296Z,6.90
2017-07-06T19:52:50.365Z,8.07
2017-07-06T19:55:17.673Z,6.90
2017-07-06T19:57:45.026Z,6.23
2017-07-06T20:00:12.356Z,6.60
2017-07-06T20:02:39.715Z,8.10
2017-07-06T20:05:07.056Z,6.27
2017-07-06T20:07:34.381Z,6.63
2017-07-06T20:10:01.681Z,6.57
2017-07-06T20:12:28.997Z,6.00
2017-07-06T20:14:56.601Z,6.33
2017-07-06T20:17:23.968Z,6.90
2017-07-06T20:19:51.287Z,6.53
2017-07-06T20:22:18.632Z,6.67
2017-07-06T20:24:45.943Z,6.63
2017-07-06T20:27:13.255Z,6.20
2017-07-06T20:29:40.560Z,6.30
2017-07-06T20:32:07.852Z,6.80
2017-07-06T20:34:35.164Z,6.73
2017-07-06T20:37:02.466Z,6.87
2017-07-06T20:39:29.765Z,7.00
2017-07-06T20:41:57.052Z,6.53
2017-07-06T20:44:24.396Z,8.27
2017-07-06T20:46:51.722Z,6.13
2017-07-06T20:49:19.042Z,6.40
2017-07-06T20:51:46.418Z,6.60
2017-07-06T20:54:14.051Z,6.47
2017-07-06T20:56:41.353Z,7.63
2017-07-06T20:59:08.673Z,6.30
2017-07-06T21:01:35.997Z,6.90
2017-07-06T21:04:03.295Z,7.00
2017-07-06T21:06:30.599Z,6.53
2017-07-06T21:08:57.890Z,7.50
2017-07-06T21:11:25.193Z,6.17
2017-07-06T21:13:52.493Z,7.10
2017-07-06T21:16:19.818Z,5.97
2017-07-06T21:18:47.112Z,7.30
2017-07-06T21:21:14.420Z,6.00
2017-07-06T21:23:41.728Z,6.63
2017-07-06T21:26:09.031Z,6.80
2017-07-06T21:28:36.329Z,5.67
2017-07-06T21:31:03.682Z,5.90
2017-07-06T21:33:31.012Z,6.40
2017-07-06T21:35:58.374Z,6.67
2017-07-06T21:38:25.684Z,6.60
2017-07-06T21:40:52.987Z,6.43
2017-07-06T21:43:20.295Z,6.37
2017-07-06T21:45:47.596Z,6.70
2017-07-06T21:48:14.915Z,5.90
2017-07-06T21:50:42.203Z,6.57
2017-07-06T21:53:09.548Z,6.63
2017-07-06T21:55:36.867Z,6.63
2017-07-06T21:58:04.173Z,6.00
2017-07-06T22:00:31.649Z,6.83
2017-07-06T22:02:58.968Z,6.20
2017-07-06T22:05:26.789Z,6.80
2017-07-06T22:07:54.098Z,6.30
2017-07-06T22:10:21.420Z,6.90
2017-07-06T22:12:48.732Z,6.47
2017-07-06T22:15:16.239Z,6.50
2017-07-06T22:17:43.542Z,7.23
2017-07-06T22:20:10.839Z,7.80
2017-07-06T22:22:38.139Z,6.70
2017-07-06T22:25:05.476Z,6.70
2017-07-06T22:27:32.773Z,6.30
2017-07-06T22:30:00.079Z,6.43
2017-07-06T22:32:27.385Z,6.27
2017-07-06T22:34:54.697Z,6.50
2017-07-06T22:37:21.989Z,6.47
2017-07-06T22:39:49.350Z,6.73
2017-07-06T22:42:16.648Z,6.80
2017-07-06T22:44:43.966Z,7.27
2017-07-06T22:47:11.252Z,6.80
2017-07-06T22:49:38.644Z,5.90
2017-07-06T22:52:05.934Z,6.20
2017-07-06T22:54:33.253Z,6.50
2017-07-06T22:57:00.574Z,6.30
2017-07-06T22:59:27.873Z,6.90
2017-07-06T23:01:55.200Z,6.50
2017-07-06T23:04:22.512Z,6.43
2017-07-06T23:06:49.811Z,6.50
2017-07-06T23:09:17.105Z,6.83
2017-07-06T23:11:44.404Z,6.50
2017-07-06T23:14:11.702Z,6.57
2017-07-06T23:16:39.042Z,6.70
2017-07-06T23:19:06.359Z,6.60
2017-07-06T23:21:33.684Z,6.40
2017-07-06T23:24:00.973Z,6.83
2017-07-06T23:26:28.280Z,7.00
2017-07-06T23:28:55.594Z,7.30
2017-07-06T23:31:22.900Z,6.93
2017-07-06T23:33:50.207Z,6.83
2017-07-06T23:36:17.515Z,6.87
2017-07-06T23:38:44.836Z,6.57
2017-07-06T23:41:12.138Z,6.63
2017-07-06T23:43:39.445Z,6.63
2017-07-06T23:46:06.738Z,6.43
2017-07-06T23:48:34.507Z,6.30
2017-07-06T23:51:01.801Z,6.50
2017-07-06T23:53:29.115Z,6.47
2017-07-06T23:55:56.985Z,6.60
2017-07-06T23:58:24.296Z,6.80
